createdAt,value
2019-03-30T00:00:57.407Z,39.43
2019-03-30T00:03:26.410Z,39.70
2019-03-30T00:05:55.397Z,33.13
2019-03-30T00:08:24.418Z,28.93
2019-03-30T00:10:53.430Z,26.07
2019-03-30T00:13:22.437Z,38.60
2019-03-30T00:15:51.428Z,32.37
2019-03-30T00:18:20.461Z,29.03
2019-03-30T00:20:49.736Z,44.27
2019-03-30T00:23:18.853Z,45.10
2019-03-30T00:25:47.856Z,35.87
2019-03-30T00:28:16.887Z,35.77
2019-03-30T00:30:45.924Z,34.67
2019-03-30T00:33:14.950Z,37.87
2019-03-30T00:35:45.007Z,38.43
2019-03-30T00:38:14.024Z,35.37
2019-03-30T00:40:43.027Z,36.27
2019-03-30T00:43:12.040Z,37.77
2019-03-30T00:45:40.959Z,34.57
2019-03-30T00:48:09.964Z,44.33
2019-03-30T00:50:38.951Z,42.93
2019-03-30T00:53:08.045Z,38.57
2019-03-30T00:55:37.050Z,42.73
2019-03-30T00:58:06.069Z,36.47
2019-03-30T01:00:35.050Z,43.37
2019-03-30T01:03:04.075Z,34.80
2019-03-30T01:05:33.124Z,33.47
2019-03-30T01:08:02.145Z,29.57
2019-03-30T01:10:31.146Z,39.17
2019-03-30T01:13:00.230Z,40.57
2019-03-30T01:15:29.241Z,37.17
2019-03-30T01:17:58.300Z,38.67
2019-03-30T01:20:27.296Z,35.87
2019-03-30T01:22:56.329Z,30.30
2019-03-30T01:25:25.389Z,32.60
2019-03-30T01:27:54.393Z,28.73
2019-03-30T01:30:23.792Z,30.47
2019-03-30T01:32:52.820Z,25.97
2019-03-30T01:35:21.961Z,26.57
2019-03-30T01:37:51.029Z,31.23
2019-03-30T01:40:20.057Z,38.23
2019-03-30T01:42:49.042Z,33.73
2019-03-30T01:45:18.251Z,37.90
2019-03-30T01:47:47.276Z,39.07
2019-03-30T01:50:17.975Z,43.67
2019-03-30T01:52:47.263Z,40.17
2019-03-30T01:55:16.222Z,37.10
2019-03-30T01:57:45.184Z,37.77
2019-03-30T02:00:14.557Z,39.73
2019-03-30T02:02:43.608Z,36.43
2019-03-30T02:05:12.621Z,33.67
2019-03-30T02:07:42.581Z,36.77
2019-03-30T02:10:11.886Z,32.50
2019-03-30T02:12:40.931Z,31.00
2019-03-30T02:15:10.188Z,25.50
2019-03-30T02:17:39.389Z,23.20
2019-03-30T02:20:08.555Z,30.60
2019-03-30T02:22:37.557Z,26.63
2019-03-30T02:25:06.845Z,24.17
2019-03-30T02:27:35.858Z,25.20
2019-03-30T02:30:06.573Z,27.57
2019-03-30T02:32:35.576Z,27.77
2019-03-30T02:35:05.446Z,29.03
2019-03-30T02:37:34.436Z,25.33
2019-03-30T02:40:04.320Z,28.13
2019-03-30T02:42:33.350Z,24.50
2019-03-30T02:45:02.372Z,28.03
2019-03-30T02:47:32.534Z,28.73
2019-03-30T02:50:01.650Z,24.57
2019-03-30T02:52:30.662Z,21.50
2019-03-30T02:54:59.593Z,21.80
2019-03-30T02:57:28.584Z,24.47
2019-03-30T02:59:57.608Z,28.10
2019-03-30T03:02:26.593Z,29.67
2019-03-30T03:04:55.526Z,30.70
2019-03-30T03:07:24.525Z,27.93
2019-03-30T03:09:53.660Z,26.50
2019-03-30T03:12:22.753Z,34.30
2019-03-30T03:14:51.771Z,33.07
2019-03-30T03:17:20.775Z,34.80
2019-03-30T03:19:49.771Z,27.40
2019-03-30T03:22:18.810Z,25.70
2019-03-30T03:24:47.916Z,28.03
2019-03-30T03:27:16.942Z,34.83
2019-03-30T03:29:45.962Z,35.17
2019-03-30T03:32:15.034Z,24.10
2019-03-30T03:34:44.030Z,21.37
2019-03-30T03:37:13.059Z,27.03
2019-03-30T03:39:43.121Z,28.77
2019-03-30T03:42:12.203Z,26.53
2019-03-30T03:44:41.196Z,32.27
2019-03-30T03:47:10.277Z,27.47
2019-03-30T03:49:39.217Z,27.93
2019-03-30T03:52:08.288Z,35.67
2019-03-30T03:54:37.434Z,30.03
2019-03-30T03:57:06.513Z,28.07
2019-03-30T03:59:35.834Z,25.03
2019-03-30T04:02:05.126Z,33.23
2019-03-30T04:04:35.668Z,32.63
2019-03-30T04:07:04.743Z,29.97
2019-03-30T04:09:34.739Z,28.43
2019-03-30T04:12:05.311Z,23.23
2019-03-30T04:14:35.141Z,33.77
2019-03-30T04:17:04.148Z,36.37
2019-03-30T04:19:33.154Z,36.60
2019-03-30T04:22:02.299Z,42.10
2019-03-30T04:24:31.324Z,40.67
2019-03-30T04:27:00.406Z,35.63
2019-03-30T04:29:29.715Z,36.23
2019-03-30T04:31:58.759Z,35.60
2019-03-30T04:34:27.787Z,34.57
2019-03-30T04:36:56.805Z,39.23
2019-03-30T04:39:25.803Z,41.43
2019-03-30T04:41:54.749Z,30.53
2019-03-30T04:44:23.738Z,35.23
2019-03-30T04:46:52.756Z,30.17
2019-03-30T04:49:21.729Z,29.13
2019-03-30T04:51:57.454Z,30.43
2019-03-30T04:54:22.397Z,29.50
2019-03-30T04:56:51.415Z,30.23
2019-03-30T04:59:20.517Z,31.03
2019-03-30T05:01:49.925Z,35.83
2019-03-30T05:04:18.943Z,43.27
2019-03-30T05:06:47.944Z,37.70
2019-03-30T05:09:16.880Z,42.70
2019-03-30T05:11:45.864Z,37.67
2019-03-30T05:14:14.876Z,30.83
2019-03-30T05:16:43.841Z,36.07
2019-03-30T05:19:12.853Z,31.17
2019-03-30T05:21:41.857Z,35.67
2019-03-30T05:24:10.867Z,33.03
2019-03-30T05:26:39.860Z,35.67
2019-03-30T05:29:08.878Z,32.73
2019-03-30T05:31:37.876Z,35.97
2019-03-30T05:34:06.883Z,29.73
2019-03-30T05:36:35.943Z,26.23
2019-03-30T05:39:05.249Z,26.13
2019-03-30T05:41:34.781Z,22.13
2019-03-30T05:44:04.381Z,14.30
2019-03-30T05:46:33.377Z,19.50
2019-03-30T05:49:02.394Z,20.13
2019-03-30T05:51:31.384Z,19.50
2019-03-30T05:54:00.414Z,15.10
2019-03-30T05:56:29.496Z,13.07
2019-03-30T05:58:58.505Z,11.83
2019-03-30T06:01:27.498Z,16.43
2019-03-30T06:03:56.906Z,12.67
2019-03-30T06:06:26.011Z,15.90
2019-03-30T06:08:55.018Z,13.53
2019-03-30T06:11:23.928Z,9.07
2019-03-30T06:13:52.942Z,10.67
2019-03-30T06:16:21.926Z,12.87
2019-03-30T06:18:50.921Z,8.70
2019-03-30T06:21:19.914Z,9.53
2019-03-30T06:23:49.005Z,10.50
2019-03-30T06:26:18.015Z,9.47
2019-03-30T06:28:47.061Z,14.23
2019-03-30T06:31:16.958Z,12.10
2019-03-30T06:33:45.989Z,13.67
2019-03-30T06:36:15.027Z,12.13
2019-03-30T06:45:24.427Z,10.53
2019-03-30T06:47:53.370Z,11.35
2019-03-30T06:50:22.393Z,10.80
2019-03-30T06:52:57.947Z,12.13
2019-03-30T06:55:22.029Z,9.78
2019-03-30T06:57:51.024Z,11.22
2019-03-30T07:00:21.573Z,8.50
2019-03-30T07:02:50.641Z,54.35
2019-03-30T07:05:19.598Z,689.87
2019-03-30T07:07:48.602Z,988.60
2019-03-30T07:10:17.658Z,1114.13
2019-03-30T07:12:46.763Z,1096.83
2019-03-30T07:15:15.785Z,1099.67
2019-03-30T07:17:45.840Z,1144.43
2019-03-30T07:20:16.418Z,1209.68
2019-03-30T07:22:45.557Z,1168.33
2019-03-30T07:25:14.636Z,1210.85
2019-03-30T07:27:43.707Z,1111.43
2019-03-30T07:30:12.761Z,1098.05
2019-03-30T07:32:41.990Z,1122.88
2019-03-30T07:35:11.079Z,1112.10
2019-03-30T07:37:40.109Z,1121.90
2019-03-30T07:40:09.609Z,1166.75
2019-03-30T07:42:38.611Z,1174.83
2019-03-30T07:45:07.815Z,1307.18
2019-03-30T07:47:36.835Z,1250.45
2019-03-30T07:50:07.235Z,1314.85
2019-03-30T07:52:36.245Z,1333.90
2019-03-30T07:55:05.689Z,1362.40
2019-03-30T07:57:34.758Z,1361.83
2019-03-30T08:00:05.140Z,1236.10
2019-03-30T08:02:34.285Z,1307.35
2019-03-30T08:05:04.163Z,1357.33
2019-03-30T08:07:33.190Z,1471.18
2019-03-30T08:10:02.297Z,1526.83
2019-03-30T08:12:31.334Z,1613.38
2019-03-30T08:15:00.437Z,1645.65
2019-03-30T08:17:29.464Z,1604.95
2019-03-30T08:19:58.468Z,1692.45
2019-03-30T08:22:27.435Z,1751.73
2019-03-30T08:24:56.448Z,1729.28
2019-03-30T08:27:25.396Z,1510.88
2019-03-30T08:29:54.399Z,1580.13
2019-03-30T08:32:23.443Z,1381.95
2019-03-30T08:34:52.592Z,1489.03
2019-03-30T08:37:21.717Z,1355.95
2019-03-30T08:39:50.733Z,1393.68
2019-03-30T08:42:20.032Z,1340.95
2019-03-30T08:44:49.049Z,1428.25
2019-03-30T08:47:18.089Z,1240.33
2019-03-30T08:49:47.157Z,1299.85
2019-03-30T08:52:16.317Z,1131.68
2019-03-30T08:54:46.853Z,1159.03
2019-03-30T08:57:16.625Z,1120.58
2019-03-30T08:59:45.567Z,1120.17
2019-03-30T09:02:14.601Z,1114.98
2019-03-30T09:04:43.534Z,1130.83
2019-03-30T09:07:13.658Z,1104.50
2019-03-30T09:09:42.712Z,1132.38
2019-03-30T09:12:11.719Z,1135.88
2019-03-30T09:14:40.728Z,1153.85
2019-03-30T09:17:09.766Z,1164.17
2019-03-30T09:19:38.763Z,1133.50
2019-03-30T09:22:07.828Z,1416.50
2019-03-30T09:24:37.226Z,1373.93
2019-03-30T09:27:06.273Z,1240.68
2019-03-30T09:29:35.225Z,1220.03
2019-03-30T09:32:14.392Z,1210.28
2019-03-30T09:34:35.029Z,1131.48
2019-03-30T09:37:05.235Z,1158.40
2019-03-30T09:39:34.241Z,1380.10
2019-03-30T09:42:03.273Z,1228.38
2019-03-30T09:44:32.291Z,1400.55
2019-03-30T09:47:01.307Z,1150.73
2019-03-30T09:49:30.342Z,1102.88
2019-03-30T09:51:59.350Z,1133.03
2019-03-30T09:54:28.394Z,1137.13
2019-03-30T09:56:57.739Z,1131.15
2019-03-30T09:59:26.873Z,1114.55
2019-03-30T10:01:55.822Z,1163.58
2019-03-30T10:04:24.831Z,1161.72
2019-03-30T10:06:53.823Z,1159.98
2019-03-30T10:09:22.862Z,1130.80
2019-03-30T10:11:51.862Z,1150.15
2019-03-30T10:14:20.952Z,1188.97
2019-03-30T10:16:49.962Z,1185.15
2019-03-30T10:19:19.011Z,1210.43
2019-03-30T10:21:48.019Z,1154.63
2019-03-30T10:24:17.033Z,1192.55
2019-03-30T10:26:45.958Z,1170.73
2019-03-30T10:29:14.944Z,1215.35
2019-03-30T10:31:43.967Z,1211.88
2019-03-30T10:34:13.002Z,1336.35
2019-03-30T10:36:42.120Z,1549.58
2019-03-30T10:39:11.146Z,1272.98
2019-03-30T10:41:40.102Z,1232.38
2019-03-30T10:44:09.136Z,1261.70
2019-03-30T10:46:38.082Z,1310.70
2019-03-30T10:49:07.114Z,1262.40
2019-03-30T10:51:36.117Z,1214.38
2019-03-30T10:54:05.148Z,1238.05
2019-03-30T10:56:34.094Z,1624.40
2019-03-30T10:59:03.130Z,1218.88
2019-03-30T11:01:32.146Z,1206.63
2019-03-30T11:04:01.186Z,1256.70
2019-03-30T11:06:30.207Z,1207.08
2019-03-30T11:08:59.230Z,1386.75
2019-03-30T11:11:28.238Z,1361.63
2019-03-30T11:13:57.566Z,1808.40
2019-03-30T11:16:26.569Z,1412.20
2019-03-30T11:18:56.629Z,1482.08
2019-03-30T11:21:25.654Z,1178.20
2019-03-30T11:23:54.663Z,1660.45
2019-03-30T11:26:23.699Z,1240.43
2019-03-30T11:28:52.702Z,1197.98
2019-03-30T11:31:21.755Z,1256.93
2019-03-30T11:33:51.849Z,1866.85
2019-03-30T11:36:20.876Z,1188.25
2019-03-30T11:38:49.878Z,1536.13
2019-03-30T11:41:18.919Z,1542.72
2019-03-30T11:43:47.931Z,1225.08
2019-03-30T11:46:16.949Z,1207.30
2019-03-30T11:48:45.966Z,1195.30
2019-03-30T11:51:14.997Z,1339.85
2019-03-30T11:53:43.929Z,1892.63
2019-03-30T11:56:12.969Z,1512.33
2019-03-30T11:58:41.982Z,1567.60
2019-03-30T12:01:11.005Z,1235.23
2019-03-30T12:03:40.010Z,1484.50
2019-03-30T12:06:09.099Z,1102.23
2019-03-30T12:08:38.202Z,1362.00
2019-03-30T12:11:07.262Z,1477.50
2019-03-30T12:13:36.284Z,1166.93
2019-03-30T12:16:05.310Z,1287.30
2019-03-30T12:18:34.323Z,1999.90
2019-03-30T12:21:03.362Z,1182.65
2019-03-30T12:23:32.489Z,1660.45
2019-03-30T12:26:01.566Z,1252.15
2019-03-30T12:28:30.574Z,1585.08
2019-03-30T12:30:59.688Z,1165.55
2019-03-30T12:33:28.691Z,1551.83
2019-03-30T12:35:57.756Z,1298.38
2019-03-30T12:38:26.789Z,1535.13
2019-03-30T12:40:55.822Z,1650.68
2019-03-30T12:43:24.946Z,1506.93
2019-03-30T12:45:53.951Z,1999.90
2019-03-30T12:48:22.973Z,1988.22
2019-03-30T12:50:52.105Z,1999.90
2019-03-30T12:53:21.129Z,1999.90
2019-03-30T12:55:50.072Z,1546.28
2019-03-30T12:58:20.189Z,1465.48
2019-03-30T13:00:49.187Z,1999.90
2019-03-30T13:03:18.214Z,1579.40
2019-03-30T13:05:47.225Z,1645.53
2019-03-30T13:08:16.260Z,1999.90
2019-03-30T13:10:45.515Z,1205.05
2019-03-30T13:13:17.511Z,1248.30
2019-03-30T13:15:46.525Z,1420.88
2019-03-30T13:18:15.582Z,1301.30
2019-03-30T13:20:44.616Z,1490.18
2019-03-30T13:23:13.670Z,1999.90
2019-03-30T13:25:42.681Z,1532.33
2019-03-30T13:28:11.630Z,1488.22
2019-03-30T13:30:40.651Z,1280.40
2019-03-30T13:33:09.674Z,1999.90
2019-03-30T13:35:38.685Z,1855.93
2019-03-30T13:38:07.722Z,1463.92
2019-03-30T13:40:36.744Z,1999.90
2019-03-30T13:43:05.774Z,1999.90
2019-03-30T13:45:35.131Z,1654.98
2019-03-30T13:48:04.257Z,1497.03
2019-03-30T13:50:33.245Z,1368.58
2019-03-30T13:53:02.282Z,1999.90
2019-03-30T13:55:31.518Z,1999.90
2019-03-30T13:58:00.534Z,1013.83
2019-03-30T14:00:29.559Z,1306.25
2019-03-30T14:02:58.581Z,1111.50
2019-03-30T14:05:27.699Z,1999.90
2019-03-30T14:07:57.962Z,1999.90
2019-03-30T14:10:26.984Z,1079.60
2019-03-30T14:13:00.403Z,1686.67
2019-03-30T14:15:29.345Z,1999.90
2019-03-30T14:17:58.803Z,1733.58
2019-03-30T14:20:27.884Z,1240.48
2019-03-30T14:22:56.909Z,1999.90
2019-03-30T14:25:25.926Z,1442.95
2019-03-30T14:27:54.987Z,1673.98
2019-03-30T14:30:24.006Z,1926.00
2019-03-30T14:32:53.061Z,1999.90
2019-03-30T14:35:22.092Z,1999.90
2019-03-30T14:37:51.094Z,1340.13
2019-03-30T14:40:20.146Z,1999.90
2019-03-30T14:42:49.167Z,1999.90
2019-03-30T14:45:18.188Z,1112.43
2019-03-30T14:47:47.197Z,1422.45
2019-03-30T14:50:16.627Z,1999.90
2019-03-30T14:52:45.646Z,1999.90
2019-03-30T14:55:14.555Z,1262.60
2019-03-30T14:57:43.548Z,1200.73
2019-03-30T15:00:13.792Z,1999.90
2019-03-30T15:02:42.778Z,1207.60
2019-03-30T15:05:11.970Z,1345.55
2019-03-30T15:07:40.978Z,1207.85
2019-03-30T15:10:10.514Z,1999.90
2019-03-30T15:12:39.700Z,1895.15
2019-03-30T15:15:09.710Z,1999.90
2019-03-30T15:17:40.985Z,1432.83
2019-03-30T15:20:10.695Z,1999.90
2019-03-30T15:22:39.745Z,1999.90
2019-03-30T15:25:09.839Z,1987.00
2019-03-30T15:27:38.846Z,1999.90
2019-03-30T15:30:08.410Z,1999.90
2019-03-30T15:32:37.413Z,1999.90
2019-03-30T15:35:06.718Z,1648.05
2019-03-30T15:37:35.825Z,1999.90
2019-03-30T15:40:06.206Z,1999.90
2019-03-30T15:42:35.217Z,1999.90
2019-03-30T15:45:05.465Z,1188.23
2019-03-30T15:47:34.469Z,1158.60
2019-03-30T15:50:04.397Z,1284.50
2019-03-30T15:52:33.344Z,1647.28
2019-03-30T15:55:02.533Z,1814.55
2019-03-30T15:57:31.541Z,1999.90
2019-03-30T16:00:00.488Z,1999.90
2019-03-30T16:02:29.509Z,1840.30
2019-03-30T16:04:58.536Z,1221.88
2019-03-30T16:07:27.566Z,1188.78
2019-03-30T16:09:56.618Z,1861.75
2019-03-30T16:12:25.852Z,1150.95
2019-03-30T16:14:54.814Z,1793.43
2019-03-30T16:17:23.828Z,1340.00
2019-03-30T16:19:52.863Z,1353.75
2019-03-30T16:22:21.881Z,1285.75
2019-03-30T16:24:50.914Z,1221.58
2019-03-30T16:27:28.819Z,1570.75
2019-03-30T16:29:51.625Z,1246.08
2019-03-30T16:32:20.648Z,1060.05
2019-03-30T16:34:49.685Z,1194.53
2019-03-30T16:37:18.718Z,1999.90
2019-03-30T16:39:47.780Z,1087.73
2019-03-30T16:42:18.461Z,1477.53
2019-03-30T16:44:47.482Z,1999.90
2019-03-30T16:47:16.515Z,1898.28
2019-03-30T16:49:45.575Z,1463.58
2019-03-30T16:52:14.650Z,1196.55
2019-03-30T16:54:43.634Z,1766.88
2019-03-30T16:57:12.586Z,1138.43
2019-03-30T16:59:42.578Z,1083.73
2019-03-30T17:02:11.609Z,1194.43
2019-03-30T17:04:40.630Z,1376.60
2019-03-30T17:07:09.683Z,1545.35
2019-03-30T17:09:38.756Z,1383.10
2019-03-30T17:12:07.779Z,1847.50
2019-03-30T17:14:37.500Z,1367.75
2019-03-30T17:17:06.614Z,1985.38
2019-03-30T17:19:36.594Z,1214.93
2019-03-30T17:22:05.630Z,1344.08
2019-03-30T17:24:34.630Z,1435.88
2019-03-30T17:27:03.734Z,1232.15
2019-03-30T17:29:32.809Z,1289.45
2019-03-30T17:32:01.790Z,1300.55
2019-03-30T17:34:30.803Z,1240.55
2019-03-30T17:36:59.826Z,1338.63
2019-03-30T17:39:28.849Z,1308.15
2019-03-30T17:41:57.884Z,1684.33
2019-03-30T17:44:26.898Z,1489.87
2019-03-30T17:46:55.947Z,1402.73
2019-03-30T17:49:24.947Z,1426.13
2019-03-30T17:58:13.010Z,1511.77
2019-03-30T18:00:33.961Z,1589.53
2019-03-30T18:03:03.062Z,1524.57
2019-03-30T18:05:33.547Z,1614.53
2019-03-30T18:08:02.623Z,1679.87
2019-03-30T18:10:32.805Z,1574.20
2019-03-30T18:13:01.800Z,1679.73
2019-03-30T18:15:34.387Z,866.23
2019-03-30T18:18:01.523Z,885.23
2019-03-30T18:20:30.529Z,847.40
2019-03-30T18:22:59.584Z,942.33
2019-03-30T18:25:28.651Z,972.43
2019-03-30T18:27:57.707Z,771.27
2019-03-30T18:30:28.446Z,726.73
2019-03-30T18:32:57.572Z,740.93
2019-03-30T18:35:26.876Z,751.17
2019-03-30T18:37:55.940Z,705.07
2019-03-30T18:40:26.518Z,721.43
2019-03-30T18:42:55.633Z,714.47
2019-03-30T18:45:25.873Z,747.97
2019-03-30T18:47:56.474Z,721.63
2019-03-30T18:50:25.508Z,740.50
2019-03-30T18:52:54.942Z,743.07
2019-03-30T18:55:24.130Z,747.53
2019-03-30T18:57:53.254Z,748.73
2019-03-30T19:00:23.794Z,741.47
2019-03-30T19:13:08.956Z,873.17
2019-03-30T19:15:38.057Z,874.63
2019-03-30T19:18:07.194Z,833.97
2019-03-30T19:20:36.226Z,840.97
2019-03-30T19:23:05.341Z,818.83
2019-03-30T19:25:34.449Z,800.50
2019-03-30T19:28:03.466Z,729.50
2019-03-30T19:30:32.823Z,725.07
2019-03-30T19:33:01.805Z,706.47
2019-03-30T19:35:30.938Z,697.47
2019-03-30T19:37:59.952Z,1058.63
2019-03-30T19:40:29.109Z,1771.87
2019-03-30T19:42:58.161Z,690.53
2019-03-30T19:45:27.833Z,702.93
2019-03-30T19:47:56.904Z,673.13
2019-03-30T19:50:25.968Z,650.03
2019-03-30T19:52:55.401Z,669.17
2019-03-30T19:55:24.656Z,683.23
2019-03-30T19:57:53.753Z,611.93
2019-03-30T20:00:23.122Z,628.07
2019-03-30T20:02:52.163Z,648.47
2019-03-30T20:05:21.530Z,598.20
2019-03-30T20:07:52.326Z,697.83
2019-03-30T20:10:21.651Z,677.70
2019-03-30T20:12:50.905Z,714.17
2019-03-30T20:15:20.153Z,735.00
2019-03-30T20:17:49.401Z,720.20
2019-03-30T20:20:18.700Z,726.87
2019-03-30T20:22:47.914Z,743.60
2019-03-30T20:25:17.373Z,664.23
2019-03-30T20:27:46.630Z,756.40
2019-03-30T20:30:16.958Z,697.27
2019-03-30T20:32:46.413Z,795.20
2019-03-30T20:35:15.914Z,764.30
2019-03-30T20:37:45.231Z,779.10
2019-03-30T20:40:14.665Z,777.77
2019-03-30T20:42:44.092Z,807.33
2019-03-30T20:45:14.803Z,899.23
2019-03-30T20:47:56.098Z,987.40
2019-03-30T20:50:25.435Z,912.13
2019-03-30T20:52:54.749Z,887.53
2019-03-30T20:55:23.999Z,873.33
2019-03-30T20:57:53.391Z,888.67
2019-03-30T21:00:22.970Z,900.77
2019-03-30T21:02:52.211Z,895.73
2019-03-30T21:05:21.441Z,902.53
2019-03-30T21:07:50.685Z,868.43
2019-03-30T21:10:20.074Z,924.30
2019-03-30T21:12:52.021Z,894.43
2019-03-30T21:15:21.331Z,907.93
2019-03-30T21:17:50.670Z,917.53
2019-03-30T21:20:19.907Z,883.97
2019-03-30T21:22:49.103Z,907.13
2019-03-30T21:25:18.325Z,947.80
2019-03-30T21:27:47.634Z,918.87
2019-03-30T21:30:17.092Z,911.90
2019-03-30T21:32:46.169Z,946.33
2019-03-30T21:35:15.324Z,940.83
2019-03-30T21:37:44.688Z,931.13
2019-03-30T21:40:13.856Z,907.87
2019-03-30T21:42:43.167Z,935.17
2019-03-30T21:45:12.313Z,917.83
2019-03-30T21:47:41.438Z,911.70
2019-03-30T21:50:12.101Z,921.00
2019-03-30T21:52:41.333Z,937.73
2019-03-30T21:55:10.536Z,894.20
2019-03-30T21:57:39.835Z,912.90
2019-03-30T22:00:11.138Z,920.10
2019-03-30T22:02:40.232Z,903.60
2019-03-30T22:05:09.534Z,900.07
2019-03-30T22:07:39.045Z,900.33
2019-03-30T22:10:08.778Z,899.73
2019-03-30T22:12:39.331Z,894.67
2019-03-30T22:15:08.815Z,984.93
2019-03-30T22:17:37.841Z,879.40
2019-03-30T22:20:07.144Z,941.43
2019-03-30T22:22:36.207Z,916.03
2019-03-30T22:25:05.826Z,901.67
2019-03-30T22:27:35.152Z,868.47
2019-03-30T22:30:06.640Z,930.80
2019-03-30T22:32:35.782Z,912.27
2019-03-30T22:35:04.915Z,911.20
2019-03-30T22:37:35.100Z,920.57
2019-03-30T22:40:04.937Z,915.87
2019-03-30T22:42:34.314Z,915.20
2019-03-30T22:45:04.454Z,912.87
2019-03-30T22:47:39.625Z,941.90
2019-03-30T22:50:09.689Z,942.93
2019-03-30T22:52:40.136Z,1194.33
2019-03-30T22:55:09.334Z,942.70
2019-03-30T22:57:38.611Z,921.87
2019-03-30T23:00:11.003Z,963.87
2019-03-30T23:02:41.803Z,1386.37
2019-03-30T23:05:11.282Z,1221.50
2019-03-30T23:07:40.699Z,1659.80
2019-03-30T23:10:10.163Z,1165.73
2019-03-30T23:12:39.303Z,1426.03
2019-03-30T23:15:08.446Z,1148.70
2019-03-30T23:17:41.840Z,1205.97
2019-03-30T23:20:11.204Z,1092.70
2019-03-30T23:22:40.540Z,1130.97
2019-03-30T23:25:09.795Z,1124.27
2019-03-30T23:27:39.300Z,1542.67
2019-03-30T23:30:09.072Z,1078.20
2019-03-30T23:32:38.537Z,1007.07
2019-03-30T23:35:08.925Z,1103.60
2019-03-30T23:37:38.299Z,1474.83
2019-03-30T23:40:07.987Z,1115.17
2019-03-30T23:42:38.411Z,1126.60
2019-03-30T23:45:07.787Z,1136.87
2019-03-30T23:47:37.267Z,1175.03
2019-03-30T23:50:07.697Z,1263.43
2019-03-30T23:52:37.070Z,1475.37
2019-03-30T23:55:06.538Z,1303.20
2019-03-30T23:57:35.887Z,1459.30
